sensor_id;sensor_type;location;lat;lon;timestamp;P1;durP1;ratioP1;P2;durP2;ratioP2
3700;SDS011;1866;48.374;10.766;2023-02-18T00:02:14;98.10;;;6.43;;
3700;SDS011;1866;48.374;10.766;2023-02-18T00:04:42;98.67;;;6.37;;
3700;SDS011;1866;48.374;10.766;2023-02-18T00:07:09;99.17;;;6.63;;
3700;SDS011;1866;48.374;10.766;2023-02-18T00:09:36;98.73;;;6.60;;
3700;SDS011;1866;48.374;10.766;2023-02-18T00:12:04;99.10;;;6.53;;
3700;SDS011;1866;48.374;10.766;2023-02-18T00:14:31;98.37;;;6.30;;
3700;SDS011;1866;48.374;10.766;2023-02-18T00:16:58;99.70;;;7.00;;
3700;SDS011;1866;48.374;10.766;2023-02-18T00:19:24;98.93;;;6.20;;
3700;SDS011;1866;48.374;10.766;2023-02-18T00:21:53;100.10;;;6.40;;
3700;SDS011;1866;48.374;10.766;2023-02-18T00:24:20;99.40;;;6.47;;
3700;SDS011;1866;48.374;10.766;2023-02-18T00:26:48;98.77;;;6.37;;
3700;SDS011;1866;48.374;10.766;2023-02-18T00:29:17;100.33;;;6.50;;
3700;SDS011;1866;48.374;10.766;2023-02-18T00:31:44;103.37;;;6.20;;
3700;SDS011;1866;48.374;10.766;2023-02-18T00:34:11;98.70;;;6.17;;
3700;SDS011;1866;48.374;10.766;2023-02-18T00:36:38;99.77;;;6.33;;
3700;SDS011;1866;48.374;10.766;2023-02-18T00:39:08;98.40;;;6.10;;
3700;SDS011;1866;48.374;10.766;2023-02-18T00:41:36;98.70;;;6.37;;
3700;SDS011;1866;48.374;10.766;2023-02-18T00:44:04;98.90;;;6.30;;
3700;SDS011;1866;48.374;10.766;2023-02-18T00:46:32;100.87;;;6.50;;
3700;SDS011;1866;48.374;10.766;2023-02-18T00:49:00;98.00;;;6.00;;
3700;SDS011;1866;48.374;10.766;2023-02-18T00:51:27;99.23;;;6.13;;
3700;SDS011;1866;48.374;10.766;2023-02-18T00:53:53;99.10;;;6.30;;
3700;SDS011;1866;48.374;10.766;2023-02-18T00:56:22;98.70;;;6.13;;
3700;SDS011;1866;48.374;10.766;2023-02-18T00:58:49;98.43;;;6.07;;
3700;SDS011;1866;48.374;10.766;2023-02-18T01:01:17;102.37;;;7.90;;
3700;SDS011;1866;48.374;10.766;2023-02-18T01:03:44;98.67;;;6.10;;
3700;SDS011;1866;48.374;10.766;2023-02-18T01:06:11;98.93;;;6.37;;
3700;SDS011;1866;48.374;10.766;2023-02-18T01:08:39;98.50;;;6.30;;
3700;SDS011;1866;48.374;10.766;2023-02-18T01:11:08;98.77;;;6.20;;
3700;SDS011;1866;48.374;10.766;2023-02-18T01:13:40;98.63;;;6.40;;
3700;SDS011;1866;48.374;10.766;2023-02-18T01:16:07;99.10;;;6.40;;
3700;SDS011;1866;48.374;10.766;2023-02-18T01:18:35;98.33;;;5.97;;
3700;SDS011;1866;48.374;10.766;2023-02-18T01:21:03;98.50;;;6.13;;
3700;SDS011;1866;48.374;10.766;2023-02-18T01:23:34;99.07;;;6.40;;
3700;SDS011;1866;48.374;10.766;2023-02-18T01:26:08;99.80;;;6.40;;
3700;SDS011;1866;48.374;10.766;2023-02-18T01:28:36;98.90;;;6.30;;
3700;SDS011;1866;48.374;10.766;2023-02-18T01:31:07;98.53;;;6.20;;
3700;SDS011;1866;48.374;10.766;2023-02-18T01:33:35;97.87;;;5.83;;
3700;SDS011;1866;48.374;10.766;2023-02-18T01:36:02;98.77;;;6.20;;
3700;SDS011;1866;48.374;10.766;2023-02-18T01:38:30;98.77;;;6.30;;
3700;SDS011;1866;48.374;10.766;2023-02-18T01:40:57;99.00;;;6.27;;
3700;SDS011;1866;48.374;10.766;2023-02-18T01:43:31;98.67;;;6.03;;
3700;SDS011;1866;48.374;10.766;2023-02-18T01:46:02;99.60;;;6.43;;
3700;SDS011;1866;48.374;10.766;2023-02-18T01:48:37;99.37;;;6.50;;
3700;SDS011;1866;48.374;10.766;2023-02-18T01:51:08;99.83;;;6.33;;
3700;SDS011;1866;48.374;10.766;2023-02-18T01:53:38;98.33;;;6.00;;
3700;SDS011;1866;48.374;10.766;2023-02-18T01:56:11;98.80;;;6.50;;
3700;SDS011;1866;48.374;10.766;2023-02-18T01:58:47;98.97;;;6.63;;
3700;SDS011;1866;48.374;10.766;2023-02-18T02:01:17;99.10;;;6.57;;
3700;SDS011;1866;48.374;10.766;2023-02-18T02:03:47;98.80;;;6.50;;
3700;SDS011;1866;48.374;10.766;2023-02-18T02:06:18;103.73;;;7.37;;
3700;SDS011;1866;48.374;10.766;2023-02-18T02:08:46;98.70;;;6.53;;
3700;SDS011;1866;48.374;10.766;2023-02-18T02:11:32;98.57;;;6.80;;
3700;SDS011;1866;48.374;10.766;2023-02-18T02:14:10;101.07;;;6.60;;
3700;SDS011;1866;48.374;10.766;2023-02-18T02:16:54;98.67;;;6.70;;
3700;SDS011;1866;48.374;10.766;2023-02-18T02:25:38;99.37;;;6.90;;
3700;SDS011;1866;48.374;10.766;2023-02-18T02:28:51;99.27;;;6.90;;
3700;SDS011;1866;48.374;10.766;2023-02-18T02:34:17;98.33;;;6.70;;
3700;SDS011;1866;48.374;10.766;2023-02-18T02:37:00;100.23;;;6.90;;
3700;SDS011;1866;48.374;10.766;2023-02-18T02:39:37;99.80;;;7.10;;
3700;SDS011;1866;48.374;10.766;2023-02-18T02:42:12;98.53;;;6.57;;
3700;SDS011;1866;48.374;10.766;2023-02-18T02:44:46;99.30;;;6.70;;
3700;SDS011;1866;48.374;10.766;2023-02-18T02:47:20;99.50;;;7.07;;
3700;SDS011;1866;48.374;10.766;2023-02-18T02:49:59;101.23;;;6.90;;
3700;SDS011;1866;48.374;10.766;2023-02-18T02:52:29;99.07;;;6.97;;
3700;SDS011;1866;48.374;10.766;2023-02-18T02:54:58;99.80;;;7.00;;
3700;SDS011;1866;48.374;10.766;2023-02-18T02:57:42;98.50;;;6.80;;
3700;SDS011;1866;48.374;10.766;2023-02-18T03:00:12;99.57;;;7.00;;
3700;SDS011;1866;48.374;10.766;2023-02-18T03:02:46;98.77;;;6.60;;
3700;SDS011;1866;48.374;10.766;2023-02-18T03:05:41;100.00;;;7.10;;
3700;SDS011;1866;48.374;10.766;2023-02-18T03:08:22;99.00;;;6.83;;
3700;SDS011;1866;48.374;10.766;2023-02-18T03:11:02;99.33;;;7.00;;
3700;SDS011;1866;48.374;10.766;2023-02-18T03:13:39;100.33;;;6.80;;
3700;SDS011;1866;48.374;10.766;2023-02-18T03:16:26;99.00;;;6.83;;
3700;SDS011;1866;48.374;10.766;2023-02-18T03:19:00;99.83;;;7.00;;
3700;SDS011;1866;48.374;10.766;2023-02-18T03:21:36;98.77;;;6.70;;
3700;SDS011;1866;48.374;10.766;2023-02-18T03:24:08;99.17;;;6.77;;
3700;SDS011;1866;48.374;10.766;2023-02-18T03:26:41;99.30;;;6.57;;
3700;SDS011;1866;48.374;10.766;2023-02-18T03:29:12;99.00;;;6.67;;
3700;SDS011;1866;48.374;10.766;2023-02-18T03:31:42;98.60;;;6.97;;
3700;SDS011;1866;48.374;10.766;2023-02-18T03:34:13;98.47;;;6.83;;
3700;SDS011;1866;48.374;10.766;2023-02-18T03:36:46;99.57;;;7.13;;
3700;SDS011;1866;48.374;10.766;2023-02-18T03:39:13;98.90;;;6.70;;
3700;SDS011;1866;48.374;10.766;2023-02-18T03:41:41;99.07;;;6.80;;
3700;SDS011;1866;48.374;10.766;2023-02-18T03:44:09;99.57;;;6.80;;
3700;SDS011;1866;48.374;10.766;2023-02-18T03:46:37;99.27;;;6.93;;
3700;SDS011;1866;48.374;10.766;2023-02-18T03:49:07;99.57;;;7.00;;
3700;SDS011;1866;48.374;10.766;2023-02-18T03:51:36;99.07;;;6.83;;
3700;SDS011;1866;48.374;10.766;2023-02-18T03:54:04;98.70;;;6.83;;
3700;SDS011;1866;48.374;10.766;2023-02-18T03:56:32;100.50;;;7.70;;
3700;SDS011;1866;48.374;10.766;2023-02-18T03:58:59;98.70;;;7.23;;
3700;SDS011;1866;48.374;10.766;2023-02-18T04:01:26;99.20;;;7.10;;
3700;SDS011;1866;48.374;10.766;2023-02-18T04:03:53;98.97;;;7.10;;
3700;SDS011;1866;48.374;10.766;2023-02-18T04:06:20;99.00;;;6.90;;
3700;SDS011;1866;48.374;10.766;2023-02-18T04:08:49;98.33;;;6.87;;
3700;SDS011;1866;48.374;10.766;2023-02-18T04:11:18;99.10;;;7.33;;
3700;SDS011;1866;48.374;10.766;2023-02-18T04:13:45;98.40;;;6.67;;
3700;SDS011;1866;48.374;10.766;2023-02-18T04:16:12;99.87;;;7.23;;
3700;SDS011;1866;48.374;10.766;2023-02-18T04:18:40;98.57;;;6.50;;
3700;SDS011;1866;48.374;10.766;2023-02-18T04:21:08;99.13;;;7.00;;
3700;SDS011;1866;48.374;10.766;2023-02-18T04:23:35;99.40;;;6.90;;
3700;SDS011;1866;48.374;10.766;2023-02-18T04:26:03;98.90;;;6.83;;
3700;SDS011;1866;48.374;10.766;2023-02-18T04:28:31;98.80;;;6.87;;
3700;SDS011;1866;48.374;10.766;2023-02-18T04:30:59;98.67;;;6.80;;
3700;SDS011;1866;48.374;10.766;2023-02-18T04:33:29;98.77;;;6.90;;
3700;SDS011;1866;48.374;10.766;2023-02-18T04:35:56;98.80;;;6.67;;
3700;SDS011;1866;48.374;10.766;2023-02-18T04:38:23;99.17;;;6.70;;
3700;SDS011;1866;48.374;10.766;2023-02-18T04:40:50;97.80;;;6.47;;
3700;SDS011;1866;48.374;10.766;2023-02-18T04:43:20;98.40;;;6.57;;
3700;SDS011;1866;48.374;10.766;2023-02-18T04:45:48;99.07;;;6.67;;
3700;SDS011;1866;48.374;10.766;2023-02-18T04:48:15;98.97;;;6.87;;
3700;SDS011;1866;48.374;10.766;2023-02-18T04:50:43;98.77;;;6.77;;
3700;SDS011;1866;48.374;10.766;2023-02-18T04:53:10;99.00;;;6.60;;
3700;SDS011;1866;48.374;10.766;2023-02-18T04:55:37;99.67;;;6.70;;
3700;SDS011;1866;48.374;10.766;2023-02-18T04:58:04;98.37;;;6.37;;
3700;SDS011;1866;48.374;10.766;2023-02-18T05:00:32;98.87;;;6.40;;
3700;SDS011;1866;48.374;10.766;2023-02-18T05:03:04;99.33;;;6.90;;
3700;SDS011;1866;48.374;10.766;2023-02-18T05:05:31;98.33;;;6.10;;
3700;SDS011;1866;48.374;10.766;2023-02-18T05:07:58;99.47;;;6.27;;
3700;SDS011;1866;48.374;10.766;2023-02-18T05:10:25;103.50;;;6.53;;
3700;SDS011;1866;48.374;10.766;2023-02-18T05:12:52;98.50;;;6.70;;
3700;SDS011;1866;48.374;10.766;2023-02-18T05:15:18;98.80;;;6.70;;
3700;SDS011;1866;48.374;10.766;2023-02-18T05:17:45;99.20;;;6.67;;
3700;SDS011;1866;48.374;10.766;2023-02-18T05:20:14;97.87;;;6.27;;
3700;SDS011;1866;48.374;10.766;2023-02-18T05:22:40;98.57;;;6.43;;
3700;SDS011;1866;48.374;10.766;2023-02-18T05:25:07;98.53;;;6.43;;
3700;SDS011;1866;48.374;10.766;2023-02-18T05:27:34;98.90;;;6.93;;
3700;SDS011;1866;48.374;10.766;2023-02-18T05:30:01;100.27;;;6.43;;
3700;SDS011;1866;48.374;10.766;2023-02-18T05:32:28;98.93;;;6.70;;
3700;SDS011;1866;48.374;10.766;2023-02-18T05:34:55;99.67;;;6.63;;
3700;SDS011;1866;48.374;10.766;2023-02-18T05:37:24;98.10;;;6.30;;
3700;SDS011;1866;48.374;10.766;2023-02-18T05:39:53;98.27;;;6.50;;
3700;SDS011;1866;48.374;10.766;2023-02-18T05:42:20;98.17;;;6.60;;
3700;SDS011;1866;48.374;10.766;2023-02-18T05:44:47;97.70;;;6.63;;
3700;SDS011;1866;48.374;10.766;2023-02-18T05:47:14;99.27;;;6.67;;
3700;SDS011;1866;48.374;10.766;2023-02-18T05:49:41;98.40;;;6.60;;
3700;SDS011;1866;48.374;10.766;2023-02-18T05:52:10;98.17;;;6.40;;
3700;SDS011;1866;48.374;10.766;2023-02-18T05:54:38;98.60;;;6.77;;
3700;SDS011;1866;48.374;10.766;2023-02-18T05:57:05;99.47;;;7.07;;
3700;SDS011;1866;48.374;10.766;2023-02-18T05:59:32;98.80;;;6.97;;
3700;SDS011;1866;48.374;10.766;2023-02-18T06:01:59;98.37;;;6.70;;
3700;SDS011;1866;48.374;10.766;2023-02-18T06:04:28;98.67;;;6.77;;
3700;SDS011;1866;48.374;10.766;2023-02-18T06:06:55;99.27;;;6.93;;
3700;SDS011;1866;48.374;10.766;2023-02-18T06:09:22;98.97;;;6.37;;
3700;SDS011;1866;48.374;10.766;2023-02-18T06:11:50;100.57;;;7.20;;
3700;SDS011;1866;48.374;10.766;2023-02-18T06:14:17;99.27;;;6.73;;
3700;SDS011;1866;48.374;10.766;2023-02-18T06:16:44;97.87;;;6.20;;
3700;SDS011;1866;48.374;10.766;2023-02-18T06:19:10;98.77;;;6.83;;
3700;SDS011;1866;48.374;10.766;2023-02-18T06:21:37;98.47;;;6.83;;
3700;SDS011;1866;48.374;10.766;2023-02-18T06:24:04;98.50;;;6.57;;
3700;SDS011;1866;48.374;10.766;2023-02-18T06:26:32;100.43;;;6.70;;
3700;SDS011;1866;48.374;10.766;2023-02-18T06:29:00;103.40;;;6.60;;
3700;SDS011;1866;48.374;10.766;2023-02-18T06:31:27;98.90;;;6.83;;
3700;SDS011;1866;48.374;10.766;2023-02-18T06:33:54;99.80;;;6.77;;
3700;SDS011;1866;48.374;10.766;2023-02-18T06:36:21;99.00;;;6.87;;
3700;SDS011;1866;48.374;10.766;2023-02-18T06:38:48;98.40;;;6.77;;
3700;SDS011;1866;48.374;10.766;2023-02-18T06:41:14;99.20;;;6.97;;
3700;SDS011;1866;48.374;10.766;2023-02-18T06:43:41;99.23;;;6.80;;
3700;SDS011;1866;48.374;10.766;2023-02-18T06:46:10;97.97;;;6.50;;
3700;SDS011;1866;48.374;10.766;2023-02-18T06:48:36;98.60;;;6.80;;
3700;SDS011;1866;48.374;10.766;2023-02-18T06:51:05;102.97;;;6.60;;
3700;SDS011;1866;48.374;10.766;2023-02-18T06:53:33;97.77;;;6.33;;
3700;SDS011;1866;48.374;10.766;2023-02-18T06:55:59;98.60;;;6.67;;
3700;SDS011;1866;48.374;10.766;2023-02-18T06:58:26;98.77;;;6.47;;
3700;SDS011;1866;48.374;10.766;2023-02-18T07:00:53;98.60;;;6.90;;
3700;SDS011;1866;48.374;10.766;2023-02-18T07:03:21;98.23;;;6.43;;
3700;SDS011;1866;48.374;10.766;2023-02-18T07:05:49;98.30;;;6.73;;
3700;SDS011;1866;48.374;10.766;2023-02-18T07:08:16;99.00;;;6.80;;
3700;SDS011;1866;48.374;10.766;2023-02-18T07:10:45;98.57;;;6.73;;
3700;SDS011;1866;48.374;10.766;2023-02-18T07:13:12;98.07;;;6.60;;
3700;SDS011;1866;48.374;10.766;2023-02-18T07:15:39;99.50;;;6.90;;
3700;SDS011;1866;48.374;10.766;2023-02-18T07:18:05;98.70;;;6.83;;
3700;SDS011;1866;48.374;10.766;2023-02-18T07:20:34;98.77;;;6.80;;
3700;SDS011;1866;48.374;10.766;2023-02-18T07:23:00;99.37;;;6.73;;
3700;SDS011;1866;48.374;10.766;2023-02-18T07:25:27;99.90;;;7.00;;
3700;SDS011;1866;48.374;10.766;2023-02-18T07:27:54;98.57;;;6.43;;
3700;SDS011;1866;48.374;10.766;2023-02-18T07:30:21;98.60;;;6.57;;
3700;SDS011;1866;48.374;10.766;2023-02-18T07:32:48;100.37;;;7.70;;
3700;SDS011;1866;48.374;10.766;2023-02-18T07:35:16;99.43;;;7.33;;
3700;SDS011;1866;48.374;10.766;2023-02-18T07:37:44;99.67;;;7.40;;
3700;SDS011;1866;48.374;10.766;2023-02-18T07:40:12;100.60;;;7.10;;
3700;SDS011;1866;48.374;10.766;2023-02-18T07:42:40;98.87;;;6.40;;
3700;SDS011;1866;48.374;10.766;2023-02-18T07:45:07;98.20;;;6.40;;
3700;SDS011;1866;48.374;10.766;2023-02-18T07:47:35;99.27;;;6.77;;
3700;SDS011;1866;48.374;10.766;2023-02-18T07:50:02;99.07;;;6.67;;
3700;SDS011;1866;48.374;10.766;2023-02-18T07:52:29;99.50;;;6.87;;
3700;SDS011;1866;48.374;10.766;2023-02-18T07:54:57;99.40;;;6.80;;
3700;SDS011;1866;48.374;10.766;2023-02-18T07:57:24;99.37;;;6.90;;
3700;SDS011;1866;48.374;10.766;2023-02-18T07:59:51;99.10;;;6.40;;
3700;SDS011;1866;48.374;10.766;2023-02-18T08:02:18;104.40;;;7.80;;
3700;SDS011;1866;48.374;10.766;2023-02-18T08:04:49;104.33;;;8.17;;
3700;SDS011;1866;48.374;10.766;2023-02-18T08:07:17;99.70;;;7.70;;
3700;SDS011;1866;48.374;10.766;2023-02-18T08:09:45;102.20;;;8.23;;
3700;SDS011;1866;48.374;10.766;2023-02-18T08:12:17;113.33;;;11.43;;
3700;SDS011;1866;48.374;10.766;2023-02-18T08:14:43;106.40;;;8.57;;
3700;SDS011;1866;48.374;10.766;2023-02-18T08:17:11;101.87;;;8.10;;
3700;SDS011;1866;48.374;10.766;2023-02-18T08:19:40;103.90;;;9.03;;
3700;SDS011;1866;48.374;10.766;2023-02-18T08:22:07;101.40;;;6.50;;
3700;SDS011;1866;48.374;10.766;2023-02-18T08:24:36;101.00;;;7.50;;
3700;SDS011;1866;48.374;10.766;2023-02-18T08:27:03;105.20;;;9.53;;
3700;SDS011;1866;48.374;10.766;2023-02-18T08:29:32;99.47;;;6.50;;
3700;SDS011;1866;48.374;10.766;2023-02-18T08:32:00;101.30;;;5.60;;
3700;SDS011;1866;48.374;10.766;2023-02-18T08:34:28;98.77;;;6.10;;
3700;SDS011;1866;48.374;10.766;2023-02-18T08:36:56;100.07;;;6.70;;
3700;SDS011;1866;48.374;10.766;2023-02-18T08:39:23;98.43;;;5.50;;
3700;SDS011;1866;48.374;10.766;2023-02-18T08:41:50;98.90;;;5.70;;
3700;SDS011;1866;48.374;10.766;2023-02-18T08:44:17;98.67;;;5.63;;
3700;SDS011;1866;48.374;10.766;2023-02-18T08:46:46;98.77;;;5.83;;
3700;SDS011;1866;48.374;10.766;2023-02-18T08:49:15;98.57;;;5.63;;
3700;SDS011;1866;48.374;10.766;2023-02-18T08:51:44;98.47;;;5.57;;
3700;SDS011;1866;48.374;10.766;2023-02-18T08:54:11;98.67;;;5.47;;
3700;SDS011;1866;48.374;10.766;2023-02-18T08:56:38;98.37;;;5.40;;
3700;SDS011;1866;48.374;10.766;2023-02-18T08:59:05;99.43;;;5.87;;
3700;SDS011;1866;48.374;10.766;2023-02-18T09:01:32;103.10;;;7.97;;
3700;SDS011;1866;48.374;10.766;2023-02-18T09:04:00;100.93;;;6.80;;
3700;SDS011;1866;48.374;10.766;2023-02-18T09:06:27;98.37;;;5.30;;
3700;SDS011;1866;48.374;10.766;2023-02-18T09:08:54;100.13;;;5.40;;
3700;SDS011;1866;48.374;10.766;2023-02-18T09:11:21;109.07;;;10.83;;
3700;SDS011;1866;48.374;10.766;2023-02-18T09:13:48;100.50;;;6.10;;
3700;SDS011;1866;48.374;10.766;2023-02-18T09:16:17;104.80;;;7.90;;
3700;SDS011;1866;48.374;10.766;2023-02-18T09:18:44;99.17;;;5.90;;
3700;SDS011;1866;48.374;10.766;2023-02-18T09:21:13;102.30;;;6.70;;
3700;SDS011;1866;48.374;10.766;2023-02-18T09:23:43;102.10;;;6.13;;
3700;SDS011;1866;48.374;10.766;2023-02-18T09:26:13;99.00;;;5.60;;
3700;SDS011;1866;48.374;10.766;2023-02-18T09:28:41;98.97;;;5.30;;
3700;SDS011;1866;48.374;10.766;2023-02-18T09:31:09;105.70;;;9.20;;
3700;SDS011;1866;48.374;10.766;2023-02-18T09:33:39;103.50;;;8.07;;
3700;SDS011;1866;48.374;10.766;2023-02-18T09:36:07;100.40;;;5.73;;
3700;SDS011;1866;48.374;10.766;2023-02-18T09:38:36;100.13;;;5.97;;
3700;SDS011;1866;48.374;10.766;2023-02-18T09:41:04;100.93;;;5.90;;
3700;SDS011;1866;48.374;10.766;2023-02-18T09:43:34;103.67;;;7.77;;
3700;SDS011;1866;48.374;10.766;2023-02-18T09:46:08;109.00;;;9.23;;
3700;SDS011;1866;48.374;10.766;2023-02-18T09:48:45;127.00;;;14.20;;
3700;SDS011;1866;48.374;10.766;2023-02-18T09:51:13;104.67;;;7.67;;
3700;SDS011;1866;48.374;10.766;2023-02-18T09:53:42;100.97;;;6.10;;
3700;SDS011;1866;48.374;10.766;2023-02-18T09:56:11;101.23;;;6.17;;
3700;SDS011;1866;48.374;10.766;2023-02-18T09:58:40;101.30;;;6.07;;
3700;SDS011;1866;48.374;10.766;2023-02-18T10:01:12;101.80;;;6.27;;
3700;SDS011;1866;48.374;10.766;2023-02-18T10:03:42;102.20;;;6.23;;
3700;SDS011;1866;48.374;10.766;2023-02-18T10:06:12;100.00;;;5.60;;
3700;SDS011;1866;48.374;10.766;2023-02-18T10:08:45;100.03;;;5.50;;
3700;SDS011;1866;48.374;10.766;2023-02-18T10:11:16;99.80;;;5.40;;
3700;SDS011;1866;48.374;10.766;2023-02-18T10:13:49;99.70;;;5.20;;
3700;SDS011;1866;48.374;10.766;2023-02-18T10:16:18;100.50;;;5.30;;
3700;SDS011;1866;48.374;10.766;2023-02-18T10:18:48;100.17;;;5.40;;
3700;SDS011;1866;48.374;10.766;2023-02-18T10:21:20;100.23;;;5.33;;
3700;SDS011;1866;48.374;10.766;2023-02-18T10:23:55;99.63;;;5.30;;
3700;SDS011;1866;48.374;10.766;2023-02-18T10:26:25;99.67;;;5.17;;
3700;SDS011;1866;48.374;10.766;2023-02-18T10:28:54;100.50;;;5.43;;
3700;SDS011;1866;48.374;10.766;2023-02-18T10:31:24;99.57;;;5.13;;
3700;SDS011;1866;48.374;10.766;2023-02-18T10:33:57;100.20;;;5.20;;
3700;SDS011;1866;48.374;10.766;2023-02-18T10:36:29;100.03;;;5.23;;
3700;SDS011;1866;48.374;10.766;2023-02-18T10:42:00;100.53;;;5.20;;
3700;SDS011;1866;48.374;10.766;2023-02-18T10:44:38;100.70;;;5.37;;
3700;SDS011;1866;48.374;10.766;2023-02-18T10:47:15;100.40;;;5.20;;
3700;SDS011;1866;48.374;10.766;2023-02-18T10:49:55;101.37;;;5.00;;
3700;SDS011;1866;48.374;10.766;2023-02-18T10:52:24;100.20;;;5.10;;
3700;SDS011;1866;48.374;10.766;2023-02-18T10:54:58;100.50;;;5.27;;
3700;SDS011;1866;48.374;10.766;2023-02-18T10:57:28;100.17;;;5.10;;
3700;SDS011;1866;48.374;10.766;2023-02-18T10:59:59;101.10;;;5.60;;
3700;SDS011;1866;48.374;10.766;2023-02-18T11:02:35;101.90;;;5.87;;
3700;SDS011;1866;48.374;10.766;2023-02-18T11:05:05;100.03;;;5.13;;
3700;SDS011;1866;48.374;10.766;2023-02-18T11:07:43;100.10;;;5.37;;
3700;SDS011;1866;48.374;10.766;2023-02-18T11:10:15;101.93;;;6.00;;
3700;SDS011;1866;48.374;10.766;2023-02-18T11:12:48;101.77;;;5.43;;
3700;SDS011;1866;48.374;10.766;2023-02-18T11:15:17;101.47;;;5.70;;
3700;SDS011;1866;48.374;10.766;2023-02-18T11:17:46;100.57;;;5.43;;
3700;SDS011;1866;48.374;10.766;2023-02-18T11:20:20;100.80;;;5.23;;
3700;SDS011;1866;48.374;10.766;2023-02-18T11:22:50;100.77;;;5.37;;
3700;SDS011;1866;48.374;10.766;2023-02-18T11:25:24;100.50;;;5.10;;
3700;SDS011;1866;48.374;10.766;2023-02-18T11:27:54;100.60;;;5.43;;
3700;SDS011;1866;48.374;10.766;2023-02-18T11:30:24;100.77;;;5.47;;
3700;SDS011;1866;48.374;10.766;2023-02-18T11:32:57;100.47;;;5.27;;
3700;SDS011;1866;48.374;10.766;2023-02-18T11:35:32;100.70;;;5.50;;
3700;SDS011;1866;48.374;10.766;2023-02-18T11:37:59;102.97;;;6.90;;
3700;SDS011;1866;48.374;10.766;2023-02-18T11:40:32;103.17;;;6.00;;
3700;SDS011;1866;48.374;10.766;2023-02-18T11:43:04;102.10;;;6.40;;
3700;SDS011;1866;48.374;10.766;2023-02-18T11:45:34;103.37;;;7.03;;
3700;SDS011;1866;48.374;10.766;2023-02-18T11:48:05;105.07;;;6.67;;
3700;SDS011;1866;48.374;10.766;2023-02-18T11:50:34;108.40;;;8.90;;
3700;SDS011;1866;48.374;10.766;2023-02-18T11:53:16;102.57;;;6.77;;
3700;SDS011;1866;48.374;10.766;2023-02-18T11:55:54;101.90;;;5.80;;
3700;SDS011;1866;48.374;10.766;2023-02-18T11:58:30;103.53;;;7.20;;
3700;SDS011;1866;48.374;10.766;2023-02-18T12:01:03;101.97;;;5.70;;
3700;SDS011;1866;48.374;10.766;2023-02-18T12:03:40;101.87;;;6.07;;
3700;SDS011;1866;48.374;10.766;2023-02-18T12:06:14;101.70;;;5.77;;
3700;SDS011;1866;48.374;10.766;2023-02-18T12:08:48;101.20;;;5.77;;
3700;SDS011;1866;48.374;10.766;2023-02-18T12:11:21;101.07;;;5.60;;
3700;SDS011;1866;48.374;10.766;2023-02-18T12:13:54;101.27;;;5.50;;
3700;SDS011;1866;48.374;10.766;2023-02-18T12:16:24;100.40;;;5.57;;
3700;SDS011;1866;48.374;10.766;2023-02-18T12:19:09;100.97;;;5.40;;
3700;SDS011;1866;48.374;10.766;2023-02-18T12:21:56;101.80;;;5.33;;
3700;SDS011;1866;48.374;10.766;2023-02-18T12:24:34;100.57;;;5.17;;
3700;SDS011;1866;48.374;10.766;2023-02-18T12:27:12;100.37;;;5.13;;
3700;SDS011;1866;48.374;10.766;2023-02-18T12:29:51;100.57;;;5.00;;
3700;SDS011;1866;48.374;10.766;2023-02-18T12:32:39;100.47;;;5.10;;
3700;SDS011;1866;48.374;10.766;2023-02-18T12:35:27;101.10;;;5.37;;
3700;SDS011;1866;48.374;10.766;2023-02-18T12:38:10;102.43;;;5.23;;
3700;SDS011;1866;48.374;10.766;2023-02-18T12:40:56;101.00;;;5.23;;
3700;SDS011;1866;48.374;10.766;2023-02-18T12:43:36;100.37;;;5.33;;
3700;SDS011;1866;48.374;10.766;2023-02-18T12:46:16;100.80;;;5.27;;
3700;SDS011;1866;48.374;10.766;2023-02-18T12:48:53;100.57;;;5.30;;
3700;SDS011;1866;48.374;10.766;2023-02-18T12:51:32;100.27;;;5.50;;
3700;SDS011;1866;48.374;10.766;2023-02-18T12:54:15;105.57;;;5.50;;
3700;SDS011;1866;48.374;10.766;2023-02-18T12:57:04;100.33;;;5.43;;
3700;SDS011;1866;48.374;10.766;2023-02-18T12:59:51;100.77;;;5.70;;
3700;SDS011;1866;48.374;10.766;2023-02-18T13:02:45;100.30;;;5.30;;
3700;SDS011;1866;48.374;10.766;2023-02-18T13:05:31;102.00;;;6.10;;
3700;SDS011;1866;48.374;10.766;2023-02-18T13:08:08;106.20;;;7.57;;
3700;SDS011;1866;48.374;10.766;2023-02-18T13:10:51;102.97;;;6.80;;
3700;SDS011;1866;48.374;10.766;2023-02-18T13:13:29;100.80;;;5.83;;
3700;SDS011;1866;48.374;10.766;2023-02-18T13:15:58;104.20;;;7.03;;
3700;SDS011;1866;48.374;10.766;2023-02-18T13:18:29;100.70;;;5.80;;
3700;SDS011;1866;48.374;10.766;2023-02-18T13:20:59;103.93;;;6.67;;
3700;SDS011;1866;48.374;10.766;2023-02-18T13:23:30;101.40;;;6.27;;
3700;SDS011;1866;48.374;10.766;2023-02-18T13:26:01;112.33;;;8.60;;
3700;SDS011;1866;48.374;10.766;2023-02-18T13:28:33;110.70;;;9.53;;
3700;SDS011;1866;48.374;10.766;2023-02-18T13:31:11;118.20;;;10.27;;
3700;SDS011;1866;48.374;10.766;2023-02-18T13:33:46;111.00;;;9.47;;
3700;SDS011;1866;48.374;10.766;2023-02-18T13:36:26;104.00;;;7.20;;
3700;SDS011;1866;48.374;10.766;2023-02-18T13:39:03;105.00;;;6.77;;
3700;SDS011;1866;48.374;10.766;2023-02-18T13:41:36;104.37;;;6.63;;
3700;SDS011;1866;48.374;10.766;2023-02-18T13:44:14;109.80;;;7.13;;
3700;SDS011;1866;48.374;10.766;2023-02-18T13:47:05;107.33;;;7.57;;
3700;SDS011;1866;48.374;10.766;2023-02-18T13:49:34;110.60;;;8.67;;
3700;SDS011;1866;48.374;10.766;2023-02-18T13:52:05;110.73;;;7.80;;
3700;SDS011;1866;48.374;10.766;2023-02-18T13:54:33;107.27;;;8.30;;
3700;SDS011;1866;48.374;10.766;2023-02-18T13:57:11;112.97;;;9.77;;
3700;SDS011;1866;48.374;10.766;2023-02-18T13:59:42;101.80;;;6.20;;
3700;SDS011;1866;48.374;10.766;2023-02-18T14:05:14;115.00;;;8.17;;
3700;SDS011;1866;48.374;10.766;2023-02-18T14:07:48;117.70;;;8.47;;
3700;SDS011;1866;48.374;10.766;2023-02-18T14:10:32;110.40;;;8.63;;
3700;SDS011;1866;48.374;10.766;2023-02-18T14:15:54;105.10;;;7.30;;
3700;SDS011;1866;48.374;10.766;2023-02-18T14:24:06;112.10;;;10.30;;
3700;SDS011;1866;48.374;10.766;2023-02-18T14:26:36;106.63;;;8.73;;
3700;SDS011;1866;48.374;10.766;2023-02-18T14:29:13;104.17;;;6.93;;
3700;SDS011;1866;48.374;10.766;2023-02-18T14:31:47;105.43;;;7.73;;
3700;SDS011;1866;48.374;10.766;2023-02-18T14:34:20;101.40;;;5.87;;
3700;SDS011;1866;48.374;10.766;2023-02-18T14:37:17;101.03;;;5.80;;
3700;SDS011;1866;48.374;10.766;2023-02-18T14:40:18;101.97;;;5.70;;
3700;SDS011;1866;48.374;10.766;2023-02-18T14:42:53;102.60;;;6.73;;
3700;SDS011;1866;48.374;10.766;2023-02-18T14:45:28;102.10;;;6.30;;
3700;SDS011;1866;48.374;10.766;2023-02-18T14:48:22;99.77;;;5.53;;
3700;SDS011;1866;48.374;10.766;2023-02-18T14:51:05;99.77;;;5.50;;
3700;SDS011;1866;48.374;10.766;2023-02-18T14:53:32;99.97;;;5.37;;
3700;SDS011;1866;48.374;10.766;2023-02-18T14:56:07;100.47;;;5.43;;
3700;SDS011;1866;48.374;10.766;2023-02-18T14:58:37;100.73;;;6.03;;
3700;SDS011;1866;48.374;10.766;2023-02-18T15:01:12;100.17;;;5.50;;
3700;SDS011;1866;48.374;10.766;2023-02-18T15:03:44;100.90;;;6.20;;
3700;SDS011;1866;48.374;10.766;2023-02-18T15:06:22;100.37;;;5.63;;
3700;SDS011;1866;48.374;10.766;2023-02-18T15:08:50;99.70;;;5.50;;
3700;SDS011;1866;48.374;10.766;2023-02-18T15:11:17;101.20;;;5.83;;
3700;SDS011;1866;48.374;10.766;2023-02-18T15:13:47;102.20;;;5.90;;
3700;SDS011;1866;48.374;10.766;2023-02-18T15:16:19;101.00;;;5.37;;
3700;SDS011;1866;48.374;10.766;2023-02-18T15:18:53;100.63;;;5.60;;
3700;SDS011;1866;48.374;10.766;2023-02-18T15:21:24;99.67;;;5.30;;
3700;SDS011;1866;48.374;10.766;2023-02-18T15:23:54;99.73;;;5.40;;
3700;SDS011;1866;48.374;10.766;2023-02-18T15:26:29;99.70;;;5.40;;
3700;SDS011;1866;48.374;10.766;2023-02-18T15:28:57;99.60;;;5.57;;